Stango, David
United StatesManBorn 19772006 – 2022Runner id 77989
Events
50
2006 – 2022
Best pace
12.293
km/h · 2012
Best finish
4th
of 426 · 2013
Distance raced
3,666
km · splits not double-counted
Pace over time
km/h · higher is faster
Pace over time: 50 races from 2006 to 2022, ranging from 5.92 to 12.63 kilometres per hour, where higher is faster. A second, age-graded series is drawn above it; the gap between the two is the age credit.
- Actual pace
- Age-graded pace
Results
| Date | Event | Distance | Result | Pace km/h | Placing |
|---|---|---|---|---|---|
| 2006-10-07 | 50km | 4:43:46 h | 10.572 | 11/80 | |
| 2006-11-18 | 50mi | 9:26:13 h | 8.527 | 260/1016 | |
| 2009-07-18 | Lone Ranger 24 hr Ultra-MarathonUnited States | 24h | 163.303 km | 6.804 | 15/152 |
| 2010-03-20 | 50km | 5:28:42 h | 9.127 | 49/336 | |
| 2011-02-05 | 8h | 68.879 km | 8.610 | 6/75 | |
| 2011-05-22 | Dirty German Endurance Fest 50 MileUnited States | 50mi | 8:19:37 h | 9.663 | 9/48 |
| 2011-06-04 | 50km | 5:02:41 h | 9.911 | 24/325 | |
| 2011-10-02 | 50km | 4:39:20 h | 10.740 | 14/222 | |
| 2012-02-04 | 8h | 73.386 km | 9.173 | 6/80 | |
| 2012-03-24 | 50km | 4:54:27 h | 10.188 | 23/389 | |
| 2012-04-21 | 50km | 5:43:13 h | 8.741 | 8/99 | |
| 2012-05-05 | 50km | 5:05:56 h | 9.806 | 8/245 | |
| 2012-06-02 | 50km | 4:51:01 h | 10.309 | 6/408 | |
| 2012-07-28 | 50km | 5:42:18 h | 8.764 | 2/134 | |
| 2012-09-29 | 100km | 11:33:34 h | 8.651 | 2/46 | |
| 2012-10-28 | 32.8mi | 5:20:00 h | 9.897 | 8/80 | |
| 2012-11-11 | Rosaryville Veterans Day 50KUnited States | 50km | 4:04:02 h | 12.293 | 9/120 |
| 2012-12-08 | 100km | 14:35:17 h | 6.855 | 36/116 | |
| 2013-03-02 | 50km | 5:03:34 h | 9.883 | 7/180 | |
| 2013-06-01 | 50km | 4:42:55 h | 10.604 | 4/426 | |
| 2013-07-27 | 50km | 5:25:04 h | 9.229 | 2/144 | |
| 2014-03-08 | 50km | 5:38:43 h | 8.857 | 19/206 | |
| 2014-09-06 | 100km | 9:55:23 h | 10.078 | 2/28 | |
| 2014-11-01 | 50mi | 9:38:23 h | 8.347 | 46/242 | |
| 2015-04-18 | 50km | 4:27:29 h | 11.216 | 6/399 | |
| 2015-09-19 | 32mi | 6:17:00 h | 8.196 | 2/13 | |
| 2015-11-07 | 50mi | 9:03:54 h | 8.877 | 25/198 | |
| 2016-04-23 | 50km | 5:10:00 h | 9.677 | 7/258 | |
| 2016-05-21 | Worlds End Ultramarathon 100KUnited States | 100km | 13:40:14 h | 7.315 | 10/91 |
| 2016-08-13 | 100mi | 27:11:47 h | 5.917 | 6/66 | |
| 2016-10-02 | 50km | 4:26:52 h | 11.242 | 7/308 | |
| 2016-11-05 | 53.4mi | 7:55:15 h | 10.850 | 2/20 | |
| 2017-02-11 | 50km | 4:09:59 h | 12.001 | 10/221 | |
| 2017-03-18 | 50km | 4:55:42 h | 10.145 | 8/193 | |
| 2017-04-29 | 50km | 5:11:52 h | 9.619 | 7/304 | |
| 2017-06-10 | 50mi | 9:06:33 h | 8.834 | 1/75 | |
| 2017-10-06 | 100mi | 22:10:15 h | 7.259 | 13/182 | |
| 2017-11-04 | 50mi | 8:11:24 h | 9.825 | 5/188 | |
| 2017-12-09 | 100km | 12:40:23 h | 7.891 | 11/117 | |
| 2018-03-03 | 40mi | 5:49:20 h | 11.057 | 3/72 | |
| 2018-03-31 | 68mi | 14:03:40 h | 7.783 | 11/169 | |
| 2019-04-20 | 50km | 5:04:03 h | 9.867 | 6/267 | |
| 2019-05-11 | 50km | 5:58:49 h | 8.361 | 1/16 | |
| 2019-06-01 | 100km | 12:42:27 h | 7.869 | 2/97 | |
| 2019-07-27 | 8h | 80.467 km | 10.058 | 1/39 | |
| 2019-10-04 | 100mi | 21:42:24 h | 7.414 | 9/198 | |
| 2021-06-12 | 50km | 4:13:02 h | 11.856 | 3/78 | |
| 2021-11-20 | 50km | 4:15:00 h | 11.765 | 4/69 | |
| 2021-12-11 | Hellgate 100 kmUnited States | 100km | 13:04:20 h | 7.650 | 13/122 |
| 2022-05-22 | 50km | 4:13:02 h | 11.856 | 3/78 |